createdAt,value
2018-03-31T00:00:01.299Z,987.08
2018-03-31T00:01:01.259Z,987.12
2018-03-31T00:02:01.214Z,987.12
2018-03-31T00:03:01.167Z,987.15
2018-03-31T00:04:01.130Z,987.15
2018-03-31T00:05:01.090Z,987.22
2018-03-31T00:06:01.038Z,987.27
2018-03-31T00:07:00.998Z,987.31
2018-03-31T00:08:00.959Z,987.31
2018-03-31T00:09:00.927Z,987.35
2018-03-31T00:10:00.868Z,987.39
2018-03-31T00:11:00.824Z,987.39
2018-03-31T00:12:00.789Z,987.37
2018-03-31T00:13:00.739Z,987.43
2018-03-31T00:14:00.704Z,987.41
2018-03-31T00:15:00.655Z,987.39
2018-03-31T00:16:00.617Z,987.36
2018-03-31T00:17:00.563Z,987.34
2018-03-31T00:18:00.522Z,987.32
2018-03-31T00:19:00.481Z,987.30
2018-03-31T00:20:00.432Z,987.26
2018-03-31T00:21:00.396Z,987.28
2018-03-31T00:22:00.354Z,987.25
2018-03-31T00:52:18.751Z,987.28
2018-03-31T12:22:41.642Z,987.05
2018-03-31T12:23:50.109Z,987.07
2018-03-31T12:25:34.910Z,987.03
2018-03-31T12:26:34.857Z,987.02
2018-03-31T12:27:34.815Z,987.03
2018-03-31T12:28:34.787Z,987.04
2018-03-31T12:29:34.724Z,987.01
2018-03-31T12:30:34.682Z,986.99
2018-03-31T12:31:34.635Z,987.03
2018-03-31T12:32:34.595Z,986.97
2018-03-31T12:33:34.549Z,986.97
2018-03-31T12:34:34.509Z,986.96
2018-03-31T12:35:34.469Z,986.95
2018-03-31T12:36:34.427Z,986.94
2018-03-31T12:37:34.380Z,986.91
2018-03-31T12:38:34.334Z,986.93
2018-03-31T12:39:34.293Z,986.90
2018-03-31T12:40:34.250Z,986.90
2018-03-31T12:41:34.207Z,986.87
2018-03-31T12:42:34.167Z,986.87
2018-03-31T12:43:34.125Z,986.89
2018-03-31T12:44:34.088Z,986.88
2018-03-31T12:45:34.036Z,986.91
2018-03-31T12:46:33.991Z,986.83
2018-03-31T12:47:33.948Z,986.88
2018-03-31T12:48:33.912Z,986.83
2018-03-31T12:49:33.861Z,986.84
2018-03-31T12:50:33.823Z,986.83
2018-03-31T12:51:33.785Z,986.81
2018-03-31T12:52:33.730Z,986.83
2018-03-31T12:53:33.696Z,986.80
2018-03-31T12:54:33.648Z,986.85
2018-03-31T12:55:33.607Z,986.84
2018-03-31T12:56:33.558Z,986.83
2018-03-31T12:57:33.517Z,986.84
2018-03-31T12:58:33.487Z,986.82
2018-03-31T12:59:33.437Z,986.81
2018-03-31T13:00:33.394Z,986.84
2018-03-31T13:01:33.347Z,986.78
2018-03-31T13:02:33.376Z,986.82
2018-03-31T13:03:33.263Z,986.80
2018-03-31T13:04:33.214Z,986.78
2018-03-31T13:05:33.172Z,986.79
2018-03-31T13:06:33.126Z,986.81
2018-03-31T13:07:33.087Z,986.79
2018-03-31T13:08:33.040Z,986.76
2018-03-31T13:09:32.999Z,986.80
2018-03-31T13:10:32.963Z,986.82
2018-03-31T13:11:32.915Z,986.78
2018-03-31T13:12:32.893Z,986.79
2018-03-31T13:13:32.830Z,986.79
2018-03-31T13:14:32.781Z,986.81
2018-03-31T13:15:32.740Z,986.83
2018-03-31T13:16:32.698Z,986.81
2018-03-31T13:17:32.652Z,986.82
2018-03-31T13:18:32.613Z,986.80
2018-03-31T13:19:32.574Z,986.81
2018-03-31T13:20:32.526Z,986.80
2018-03-31T13:21:32.508Z,986.80
2018-03-31T13:22:32.442Z,986.80
2018-03-31T13:23:32.399Z,986.83
2018-03-31T13:24:32.353Z,986.79
2018-03-31T13:25:32.363Z,986.78
2018-03-31T13:26:32.272Z,986.79
2018-03-31T13:27:32.227Z,986.76
2018-03-31T13:28:32.200Z,986.75
2018-03-31T13:29:32.137Z,986.74
2018-03-31T13:30:32.096Z,986.73
2018-03-31T13:31:32.055Z,986.70
2018-03-31T13:32:32.014Z,986.68
2018-03-31T13:33:31.965Z,986.67
2018-03-31T13:34:31.924Z,986.66
2018-03-31T13:35:31.876Z,986.69
2018-03-31T13:36:31.837Z,986.67
2018-03-31T13:37:31.792Z,986.67
2018-03-31T13:38:31.752Z,986.66
2018-03-31T13:39:31.706Z,986.68
2018-03-31T13:40:31.669Z,986.70
2018-03-31T13:41:31.623Z,986.66
2018-03-31T13:42:31.577Z,986.62
2018-03-31T13:43:31.535Z,986.64
2018-03-31T13:44:31.491Z,986.61
2018-03-31T13:45:31.449Z,986.59
2018-03-31T13:46:31.407Z,986.61
2018-03-31T13:47:31.360Z,986.59
2018-03-31T13:48:31.319Z,986.61
2018-03-31T13:49:31.274Z,986.57
2018-03-31T13:50:31.234Z,986.58
2018-03-31T13:51:31.190Z,986.58
2018-03-31T13:52:31.147Z,986.62
2018-03-31T13:53:31.106Z,986.59
2018-03-31T13:54:31.059Z,986.61
2018-03-31T13:55:31.024Z,986.58
2018-03-31T13:56:30.986Z,986.59
2018-03-31T13:57:30.945Z,986.59
2018-03-31T13:58:30.888Z,986.62
2018-03-31T13:59:30.847Z,986.64
2018-03-31T14:00:30.805Z,986.63
2018-03-31T14:01:30.759Z,986.63
2018-03-31T14:02:30.716Z,986.63
2018-03-31T14:03:30.670Z,986.65
2018-03-31T14:04:30.632Z,986.64
2018-03-31T14:05:30.595Z,986.61
2018-03-31T14:06:30.549Z,986.66
2018-03-31T14:07:30.553Z,986.68
2018-03-31T14:08:30.470Z,986.67
2018-03-31T14:09:30.419Z,986.66
2018-03-31T14:10:30.377Z,986.66
2018-03-31T14:11:30.334Z,986.65
2018-03-31T14:12:30.297Z,986.70
2018-03-31T14:13:30.252Z,986.66
2018-03-31T14:14:30.201Z,986.66
2018-03-31T14:15:30.158Z,986.66
2018-03-31T14:16:30.113Z,986.65
2018-03-31T14:17:30.070Z,986.68
2018-03-31T14:18:30.025Z,986.66
2018-03-31T14:19:29.983Z,986.66
2018-03-31T14:20:29.955Z,986.65
2018-03-31T14:21:29.901Z,986.65
2018-03-31T14:22:29.856Z,986.70
2018-03-31T14:23:29.817Z,986.66
2018-03-31T14:24:29.810Z,986.68
2018-03-31T14:25:29.749Z,986.69
2018-03-31T14:26:29.681Z,986.66
2018-03-31T14:27:29.640Z,986.66
2018-03-31T14:28:29.602Z,986.65
2018-03-31T14:29:29.562Z,986.65
2018-03-31T14:30:29.511Z,986.64
2018-03-31T14:31:29.473Z,986.61
2018-03-31T14:32:29.426Z,986.60
2018-03-31T14:33:29.380Z,986.62
2018-03-31T14:34:29.342Z,986.62
2018-03-31T14:35:29.297Z,986.65
2018-03-31T14:36:29.250Z,986.65
2018-03-31T14:37:29.204Z,986.63
2018-03-31T14:38:29.171Z,986.60
2018-03-31T14:39:29.124Z,986.62
2018-03-31T14:40:29.102Z,986.63
2018-03-31T14:41:29.036Z,986.65
2018-03-31T14:42:28.992Z,986.66
2018-03-31T14:43:28.955Z,986.67
2018-03-31T14:44:28.913Z,986.69
2018-03-31T14:45:28.867Z,986.72
2018-03-31T14:46:28.836Z,986.67
2018-03-31T14:47:28.778Z,986.70
2018-03-31T14:48:28.737Z,986.68
2018-03-31T14:49:28.690Z,986.71
2018-03-31T14:50:28.652Z,986.71
2018-03-31T14:51:28.607Z,986.65
2018-03-31T14:52:28.595Z,986.72
2018-03-31T14:53:28.518Z,986.72
2018-03-31T14:54:28.477Z,986.74
2018-03-31T14:55:28.465Z,986.76
2018-03-31T14:56:28.393Z,986.76
2018-03-31T14:57:28.350Z,986.73
2018-03-31T14:58:28.310Z,986.76
2018-03-31T14:59:28.261Z,986.76
2018-03-31T15:00:28.220Z,986.77
2018-03-31T15:01:28.176Z,986.77
2018-03-31T15:02:28.138Z,986.79
2018-03-31T15:03:28.154Z,986.78
2018-03-31T15:04:28.053Z,986.79
2018-03-31T15:05:28.020Z,986.79
2018-03-31T15:06:27.968Z,986.84
2018-03-31T15:07:27.920Z,986.80
2018-03-31T15:08:27.877Z,986.83
2018-03-31T15:09:27.837Z,986.83
2018-03-31T15:10:27.863Z,986.81
2018-03-31T15:11:27.748Z,986.85
2018-03-31T15:12:27.705Z,986.86
2018-03-31T15:13:27.661Z,986.84
2018-03-31T15:14:27.619Z,986.83
2018-03-31T15:15:27.575Z,986.88
2018-03-31T15:16:27.530Z,986.82
2018-03-31T15:17:27.486Z,986.88
2018-03-31T15:18:27.443Z,986.90
2018-03-31T15:19:27.402Z,986.89
2018-03-31T15:20:27.356Z,986.87
2018-03-31T15:21:27.315Z,986.90
2018-03-31T15:22:27.311Z,986.90
2018-03-31T15:23:27.228Z,986.92
2018-03-31T15:24:27.190Z,986.94
2018-03-31T15:25:27.148Z,986.94
2018-03-31T15:26:27.104Z,986.93
2018-03-31T15:27:27.062Z,986.94
2018-03-31T15:28:27.063Z,986.95
2018-03-31T15:29:26.979Z,986.93
2018-03-31T15:30:26.925Z,986.95
2018-03-31T15:31:26.885Z,986.95
2018-03-31T15:32:26.844Z,986.95
2018-03-31T15:33:26.800Z,986.97
2018-03-31T15:34:26.763Z,986.98
2018-03-31T15:35:26.712Z,986.98
2018-03-31T15:36:26.674Z,986.97
2018-03-31T15:37:26.639Z,986.96
2018-03-31T15:38:26.593Z,986.91
2018-03-31T15:39:26.545Z,986.94
2018-03-31T15:40:26.504Z,986.91
2018-03-31T15:41:26.463Z,986.88
2018-03-31T15:42:26.412Z,986.89
2018-03-31T15:43:26.368Z,986.87
2018-03-31T15:44:26.326Z,986.90
2018-03-31T15:45:26.284Z,986.90
2018-03-31T15:46:26.238Z,986.93
2018-03-31T15:47:26.198Z,986.95
2018-03-31T15:48:26.151Z,986.91
2018-03-31T15:49:26.112Z,986.94
2018-03-31T15:50:26.087Z,986.92
2018-03-31T15:51:26.028Z,986.91
2018-03-31T15:52:25.982Z,986.93
2018-03-31T15:53:25.945Z,986.93
2018-03-31T15:54:25.900Z,986.97
2018-03-31T15:55:25.850Z,986.95
2018-03-31T15:56:25.809Z,986.94
2018-03-31T15:57:25.767Z,986.97
2018-03-31T15:58:25.725Z,986.88
2018-03-31T15:59:25.681Z,986.94
2018-03-31T16:00:25.643Z,986.96
2018-03-31T16:01:25.600Z,986.93
2018-03-31T16:02:25.555Z,986.92
2018-03-31T16:03:25.514Z,986.91
2018-03-31T16:04:25.471Z,986.90
2018-03-31T16:05:25.631Z,986.90
2018-03-31T16:06:25.381Z,986.88
2018-03-31T16:07:25.338Z,986.91
2018-03-31T16:08:25.306Z,986.91
2018-03-31T16:09:25.263Z,986.94
2018-03-31T16:10:25.313Z,986.92
2018-03-31T16:11:25.190Z,986.95
2018-03-31T16:12:25.296Z,986.93
2018-03-31T16:13:25.105Z,986.93
2018-03-31T16:14:25.057Z,986.90
2018-03-31T16:15:25.005Z,986.93
2018-03-31T16:16:24.970Z,986.94
2018-03-31T16:17:24.908Z,986.91
2018-03-31T16:18:24.862Z,986.94
2018-03-31T16:19:24.851Z,986.94
2018-03-31T16:20:24.786Z,986.94
2018-03-31T16:21:24.738Z,986.92
2018-03-31T16:22:24.701Z,986.93
2018-03-31T16:23:24.652Z,986.92
2018-03-31T16:24:24.606Z,986.97
2018-03-31T16:25:24.574Z,986.98
2018-03-31T16:26:24.518Z,986.98
2018-03-31T16:27:24.480Z,986.97
2018-03-31T16:28:24.430Z,987.00
2018-03-31T16:29:24.390Z,986.97
2018-03-31T16:30:24.350Z,987.02
2018-03-31T16:31:24.313Z,987.03
2018-03-31T16:32:24.263Z,987.03
2018-03-31T16:33:24.220Z,987.03
2018-03-31T16:34:24.178Z,987.05
2018-03-31T16:35:24.134Z,987.03
2018-03-31T16:36:24.090Z,987.01
2018-03-31T16:37:24.047Z,987.01
2018-03-31T16:38:24.007Z,987.01
2018-03-31T16:39:23.963Z,987.01
2018-03-31T16:40:23.919Z,987.01
2018-03-31T16:41:23.875Z,986.98
2018-03-31T16:42:23.835Z,986.99
2018-03-31T16:43:23.820Z,986.97
2018-03-31T16:44:23.784Z,987.01
2018-03-31T16:45:23.704Z,987.02
2018-03-31T16:46:23.692Z,987.01
2018-03-31T16:47:23.622Z,987.01
2018-03-31T16:48:23.580Z,987.05
2018-03-31T16:49:23.535Z,987.01
2018-03-31T16:50:23.493Z,987.06
2018-03-31T16:51:23.450Z,987.07
2018-03-31T16:52:23.420Z,987.06
2018-03-31T16:53:23.361Z,987.11
2018-03-31T16:54:23.324Z,987.15
2018-03-31T16:55:23.275Z,987.15
2018-03-31T16:56:23.228Z,987.17
2018-03-31T16:57:23.192Z,987.17
2018-03-31T16:58:23.147Z,987.18
2018-03-31T16:59:23.115Z,987.20
2018-03-31T17:00:23.057Z,987.21
2018-03-31T17:01:23.014Z,987.24
2018-03-31T17:02:22.980Z,987.26
2018-03-31T17:03:22.930Z,987.25
2018-03-31T17:04:22.890Z,987.31
2018-03-31T17:05:22.847Z,987.27
2018-03-31T17:06:22.799Z,987.26
2018-03-31T17:07:22.760Z,987.27
2018-03-31T17:08:22.717Z,987.28
2018-03-31T17:09:22.689Z,987.25
2018-03-31T17:10:22.626Z,987.29
2018-03-31T17:11:22.590Z,987.31
2018-03-31T17:12:22.544Z,987.32
2018-03-31T17:13:22.499Z,987.29
2018-03-31T17:14:22.457Z,987.31
2018-03-31T17:15:22.432Z,987.34
2018-03-31T17:16:22.372Z,987.34
2018-03-31T17:17:22.326Z,987.34
2018-03-31T17:18:22.307Z,987.35
2018-03-31T17:19:22.245Z,987.34
2018-03-31T17:20:22.195Z,987.34
2018-03-31T17:21:22.156Z,987.35
2018-03-31T17:22:22.108Z,987.34
2018-03-31T17:23:22.065Z,987.33
2018-03-31T17:24:22.020Z,987.31
2018-03-31T17:25:21.982Z,987.31
2018-03-31T17:26:21.939Z,987.34
2018-03-31T17:27:21.894Z,987.35
2018-03-31T17:28:21.854Z,987.32
2018-03-31T17:29:21.807Z,987.38
2018-03-31T17:30:21.798Z,987.39
2018-03-31T17:31:21.720Z,987.45
2018-03-31T17:32:21.679Z,987.41
2018-03-31T17:33:21.650Z,987.52
2018-03-31T17:34:21.593Z,987.50
2018-03-31T17:35:21.548Z,987.52
2018-03-31T17:36:21.507Z,987.52
2018-03-31T17:37:21.466Z,987.59
2018-03-31T17:38:21.428Z,987.56
2018-03-31T17:39:21.378Z,987.53
2018-03-31T17:40:21.336Z,987.54
2018-03-31T17:41:21.294Z,987.49
2018-03-31T17:42:21.253Z,987.49
2018-03-31T17:43:21.212Z,987.52
2018-03-31T17:44:21.163Z,987.51
2018-03-31T17:45:21.118Z,987.49
2018-03-31T17:46:21.079Z,987.50
2018-03-31T17:47:21.033Z,987.47
2018-03-31T17:48:20.992Z,987.43
2018-03-31T17:49:20.954Z,987.47
2018-03-31T17:50:20.905Z,987.49
2018-03-31T17:51:20.862Z,987.46
2018-03-31T17:52:20.836Z,987.49
2018-03-31T17:53:20.778Z,987.49
2018-03-31T17:54:20.801Z,987.50
2018-03-31T17:55:20.735Z,987.53
2018-03-31T17:56:20.644Z,987.55
2018-03-31T17:57:20.603Z,987.58
2018-03-31T17:58:20.575Z,987.58
2018-03-31T17:59:20.518Z,987.59
2018-03-31T18:00:20.472Z,987.59
2018-03-31T18:01:20.433Z,987.61
2018-03-31T18:02:20.393Z,987.61
2018-03-31T18:03:20.349Z,987.61
2018-03-31T18:04:20.301Z,987.59
2018-03-31T18:05:20.258Z,987.60
2018-03-31T18:06:20.215Z,987.59
2018-03-31T18:07:20.173Z,987.61
2018-03-31T18:08:20.132Z,987.65
2018-03-31T18:09:20.088Z,987.66
2018-03-31T18:10:20.058Z,987.70
2018-03-31T18:11:20.010Z,987.72
2018-03-31T18:12:19.962Z,987.74
2018-03-31T18:13:19.921Z,987.73
2018-03-31T18:14:19.873Z,987.74
2018-03-31T18:15:19.831Z,987.71
2018-03-31T18:16:19.788Z,987.74
2018-03-31T18:17:19.744Z,987.75
2018-03-31T18:18:19.700Z,987.78
2018-03-31T18:19:19.661Z,987.77
2018-03-31T18:20:19.621Z,987.80
2018-03-31T18:21:19.577Z,987.77
2018-03-31T18:22:19.536Z,987.78
2018-03-31T18:23:19.486Z,987.81
2018-03-31T18:24:19.656Z,987.76
2018-03-31T18:25:19.397Z,987.78
2018-03-31T18:26:19.368Z,987.77
2018-03-31T18:27:19.371Z,987.79
2018-03-31T18:28:19.275Z,987.80
2018-03-31T18:29:19.231Z,987.79
2018-03-31T18:30:19.185Z,987.81
2018-03-31T18:31:19.143Z,987.82
2018-03-31T18:32:19.098Z,987.85
2018-03-31T18:33:19.055Z,987.89
2018-03-31T18:34:19.015Z,987.89
2018-03-31T18:35:19.237Z,987.93
2018-03-31T18:36:18.929Z,987.94
2018-03-31T18:37:18.884Z,987.95
2018-03-31T18:38:18.839Z,987.97
2018-03-31T18:39:18.796Z,988.01
2018-03-31T18:40:18.751Z,988.02
2018-03-31T18:41:18.728Z,987.99
2018-03-31T18:42:18.672Z,988.01
2018-03-31T18:43:18.664Z,988.04
2018-03-31T18:44:18.579Z,988.02
2018-03-31T18:45:18.545Z,988.05
2018-03-31T18:46:18.498Z,988.05
2018-03-31T18:47:18.454Z,988.05
2018-03-31T18:48:18.407Z,988.10
2018-03-31T18:49:18.364Z,988.08
2018-03-31T18:50:18.350Z,988.06
2018-03-31T18:51:18.288Z,988.09
2018-03-31T18:52:18.237Z,988.14
2018-03-31T18:53:18.190Z,988.13
2018-03-31T18:54:18.152Z,988.16
2018-03-31T18:55:18.107Z,988.18
2018-03-31T18:56:18.066Z,988.13
2018-03-31T18:57:18.022Z,988.15
2018-03-31T18:58:17.977Z,988.14
2018-03-31T18:59:17.952Z,988.17
2018-03-31T19:00:17.889Z,988.16
2018-03-31T19:01:17.848Z,988.21
2018-03-31T19:02:17.806Z,988.22
2018-03-31T19:03:17.771Z,988.24
2018-03-31T19:04:17.719Z,988.25
2018-03-31T19:05:17.685Z,988.26
2018-03-31T19:06:17.634Z,988.29
2018-03-31T19:07:17.599Z,988.29
2018-03-31T19:08:17.544Z,988.30
2018-03-31T19:09:17.504Z,988.29
2018-03-31T19:10:17.463Z,988.34
2018-03-31T19:11:17.416Z,988.34
2018-03-31T19:12:17.374Z,988.34
2018-03-31T19:13:17.332Z,988.32
2018-03-31T19:14:17.292Z,988.37
2018-03-31T19:15:17.241Z,988.35
2018-03-31T19:16:17.202Z,988.31
2018-03-31T19:17:17.158Z,988.32
2018-03-31T19:18:17.114Z,988.33
2018-03-31T19:19:17.080Z,988.40
2018-03-31T19:20:17.035Z,988.38
2018-03-31T19:21:16.991Z,988.40
2018-03-31T19:22:16.977Z,988.39
2018-03-31T19:23:16.904Z,988.40
2018-03-31T19:24:16.871Z,988.39
2018-03-31T19:25:16.809Z,988.45
2018-03-31T19:26:16.770Z,988.41
2018-03-31T19:27:16.728Z,988.46
2018-03-31T19:28:16.686Z,988.46
2018-03-31T19:29:16.645Z,988.43
2018-03-31T19:30:16.611Z,988.45
2018-03-31T19:31:16.563Z,988.47
2018-03-31T19:32:16.506Z,988.48
2018-03-31T19:33:16.463Z,988.50
2018-03-31T19:34:16.516Z,988.51
2018-03-31T19:35:16.382Z,988.49
2018-03-31T19:36:16.337Z,988.51
2018-03-31T19:37:16.294Z,988.52
2018-03-31T19:38:16.252Z,988.58
2018-03-31T19:39:16.225Z,988.56
2018-03-31T19:40:16.163Z,988.56
2018-03-31T19:41:16.126Z,988.57
2018-03-31T19:42:16.080Z,988.63
2018-03-31T19:43:16.036Z,988.64
2018-03-31T19:44:16.075Z,988.61
2018-03-31T19:45:15.971Z,988.64
2018-03-31T19:46:15.906Z,988.65
2018-03-31T19:47:15.861Z,988.68
2018-03-31T19:48:15.823Z,988.66
2018-03-31T19:49:15.777Z,988.68
2018-03-31T19:50:15.734Z,988.66
2018-03-31T19:51:15.689Z,988.68
2018-03-31T19:52:15.644Z,988.70
2018-03-31T19:53:15.606Z,988.70
2018-03-31T19:54:15.555Z,988.74
2018-03-31T19:55:15.518Z,988.73
2018-03-31T19:56:15.478Z,988.76
2018-03-31T19:57:15.431Z,988.78
2018-03-31T19:58:15.388Z,988.78
2018-03-31T19:59:15.349Z,988.82
2018-03-31T20:00:15.316Z,988.84
2018-03-31T20:01:15.263Z,988.83
2018-03-31T20:02:15.216Z,988.86
2018-03-31T20:03:15.172Z,988.88
2018-03-31T20:04:15.133Z,988.88
2018-03-31T20:05:15.096Z,988.95
2018-03-31T20:06:15.045Z,988.89
2018-03-31T20:07:15.006Z,988.94
2018-03-31T20:08:14.952Z,988.97
2018-03-31T20:09:14.908Z,988.99
2018-03-31T20:10:14.867Z,989.00
2018-03-31T20:11:14.819Z,989.05
2018-03-31T20:12:14.780Z,989.07
2018-03-31T20:13:14.745Z,989.06
2018-03-31T20:14:14.691Z,989.08
2018-03-31T20:15:14.669Z,989.10
2018-03-31T20:16:14.611Z,989.11
2018-03-31T20:17:14.577Z,989.12
2018-03-31T20:18:14.522Z,989.12
2018-03-31T20:19:14.476Z,989.15
2018-03-31T20:20:14.434Z,989.16
2018-03-31T20:21:14.390Z,989.16
2018-03-31T20:22:14.346Z,989.18
2018-03-31T20:23:14.309Z,989.18
2018-03-31T20:24:14.260Z,989.20
2018-03-31T20:25:14.215Z,989.21
2018-03-31T20:26:14.174Z,989.21
2018-03-31T20:27:14.133Z,989.19
2018-03-31T20:28:14.095Z,989.21
2018-03-31T20:29:14.053Z,989.16
2018-03-31T20:30:14.001Z,989.21
2018-03-31T20:31:13.961Z,989.23
2018-03-31T20:32:13.916Z,989.26
2018-03-31T20:33:13.900Z,989.24
2018-03-31T20:34:13.830Z,989.24
2018-03-31T20:35:13.790Z,989.25
2018-03-31T20:36:13.749Z,989.27
2018-03-31T20:37:13.706Z,989.23
2018-03-31T20:38:13.670Z,989.25
2018-03-31T20:39:13.612Z,989.25
2018-03-31T20:40:13.570Z,989.26
2018-03-31T20:41:13.527Z,989.25
2018-03-31T20:42:13.501Z,989.27
2018-03-31T20:43:13.503Z,989.27
2018-03-31T20:44:13.396Z,989.29
2018-03-31T20:45:20.484Z,989.29
2018-03-31T20:47:06.185Z,989.27
2018-03-31T20:48:06.169Z,989.27
2018-03-31T20:49:58.973Z,989.28
2018-03-31T20:50:58.908Z,989.33
2018-03-31T20:52:51.726Z,989.32
2018-03-31T20:53:51.684Z,989.36
2018-03-31T20:55:44.509Z,989.40
2018-03-31T20:56:44.447Z,989.40
2018-03-31T20:58:37.290Z,989.43
2018-03-31T20:59:37.228Z,989.42
2018-03-31T21:00:37.181Z,989.44
2018-03-31T21:01:37.132Z,989.47
2018-03-31T21:02:37.090Z,989.45
2018-03-31T21:03:37.040Z,989.48
2018-03-31T21:04:37.001Z,989.53
2018-03-31T21:05:36.958Z,989.51
2018-03-31T21:06:36.913Z,989.55
2018-03-31T21:07:36.872Z,989.53
2018-03-31T21:08:36.826Z,989.54
2018-03-31T21:09:36.786Z,989.52
2018-03-31T21:10:36.741Z,989.55
2018-03-31T21:11:36.698Z,989.57
2018-03-31T21:12:36.652Z,989.55
2018-03-31T21:13:36.611Z,989.57
2018-03-31T21:14:36.566Z,989.58
2018-03-31T21:15:36.527Z,989.58
2018-03-31T21:16:36.480Z,989.60
2018-03-31T21:17:36.439Z,989.58
2018-03-31T21:18:36.421Z,989.61
2018-03-31T21:19:36.355Z,989.57
2018-03-31T21:20:36.318Z,989.60
2018-03-31T21:21:36.266Z,989.61
2018-03-31T21:22:36.229Z,989.63
2018-03-31T21:23:36.180Z,989.64
2018-03-31T21:24:36.136Z,989.65
2018-03-31T21:25:36.095Z,989.65
2018-03-31T21:26:36.051Z,989.69
2018-03-31T21:27:36.028Z,989.67
2018-03-31T21:28:35.964Z,989.69
2018-03-31T21:29:35.937Z,989.72
2018-03-31T21:30:35.877Z,989.72
2018-03-31T21:31:35.840Z,989.71
2018-03-31T21:32:35.789Z,989.74
2018-03-31T21:33:35.753Z,989.73
2018-03-31T21:34:35.746Z,989.75
2018-03-31T21:35:35.670Z,989.78
2018-03-31T21:36:35.617Z,989.79
2018-03-31T21:37:35.580Z,989.77
2018-03-31T21:38:35.554Z,989.82
2018-03-31T21:39:35.492Z,989.85
2018-03-31T21:40:35.450Z,989.84
2018-03-31T21:41:35.398Z,989.86
2018-03-31T21:42:35.356Z,989.90
2018-03-31T21:43:35.352Z,989.87
2018-03-31T21:44:35.268Z,989.87
2018-03-31T21:45:35.228Z,989.88
2018-03-31T21:46:35.184Z,989.91
2018-03-31T21:47:35.141Z,989.93
2018-03-31T21:48:35.123Z,989.93
2018-03-31T21:49:35.054Z,989.92
2018-03-31T21:50:35.030Z,989.92
2018-03-31T21:51:34.972Z,989.92
2018-03-31T21:52:34.968Z,989.92
2018-03-31T21:53:34.931Z,989.96
2018-03-31T21:54:34.838Z,989.95
2018-03-31T21:55:34.792Z,989.98
2018-03-31T21:56:34.785Z,990.00
2018-03-31T21:57:34.707Z,990.00
2018-03-31T21:58:34.668Z,990.03
2018-03-31T21:59:34.619Z,990.01
2018-03-31T22:00:34.591Z,990.01
2018-03-31T22:01:34.537Z,990.02
2018-03-31T22:02:34.497Z,990.07
2018-03-31T22:03:34.470Z,990.08
2018-03-31T22:04:34.449Z,990.09
2018-03-31T22:05:34.407Z,990.11
2018-03-31T22:06:34.323Z,990.12
2018-03-31T22:07:34.280Z,990.13
2018-03-31T22:08:34.237Z,990.11
2018-03-31T22:09:34.199Z,990.13
2018-03-31T22:10:34.162Z,990.14
2018-03-31T22:11:34.115Z,990.15
2018-03-31T22:12:34.060Z,990.17
2018-03-31T22:13:34.018Z,990.15
2018-03-31T22:14:33.993Z,990.19
2018-03-31T22:15:33.939Z,990.15
2018-03-31T22:16:33.899Z,990.16
2018-03-31T22:17:33.864Z,990.21
2018-03-31T22:18:33.808Z,990.16
2018-03-31T22:19:33.762Z,990.17
2018-03-31T22:20:33.721Z,990.22
2018-03-31T22:21:33.675Z,990.18
2018-03-31T22:22:33.639Z,990.21
2018-03-31T22:23:33.583Z,990.19
2018-03-31T22:24:33.548Z,990.24
2018-03-31T22:25:33.523Z,990.25
2018-03-31T22:26:33.458Z,990.22
2018-03-31T22:27:33.411Z,990.28
2018-03-31T22:28:33.380Z,990.25
2018-03-31T22:29:33.328Z,990.24
2018-03-31T22:30:33.286Z,990.30
2018-03-31T22:31:33.365Z,990.29
2018-03-31T22:32:33.220Z,990.30
2018-03-31T22:33:33.215Z,990.32
2018-03-31T22:34:33.120Z,990.32
2018-03-31T22:35:33.062Z,990.36
2018-03-31T22:36:33.021Z,990.34
2018-03-31T22:37:32.983Z,990.33
2018-03-31T22:38:32.942Z,990.34
2018-03-31T22:39:32.892Z,990.34
2018-03-31T22:40:33.007Z,990.33
2018-03-31T22:41:32.813Z,990.36
2018-03-31T22:42:32.774Z,990.39
2018-03-31T22:43:32.722Z,990.40
2018-03-31T22:44:32.688Z,990.39
2018-03-31T22:45:32.633Z,990.40
2018-03-31T22:46:32.598Z,990.40
2018-03-31T22:47:32.550Z,990.39
2018-03-31T22:48:32.512Z,990.45
2018-03-31T22:49:32.461Z,990.41
2018-03-31T22:50:32.419Z,990.44
2018-03-31T22:51:32.382Z,990.45
2018-03-31T22:52:32.332Z,990.44
2018-03-31T22:53:32.290Z,990.49
2018-03-31T22:54:32.245Z,990.50
2018-03-31T22:55:32.222Z,990.46
2018-03-31T22:56:32.164Z,990.49
2018-03-31T22:57:32.114Z,990.46
2018-03-31T22:58:32.071Z,990.49
2018-03-31T22:59:32.038Z,990.45
2018-03-31T23:00:31.985Z,990.48
2018-03-31T23:01:31.968Z,990.49
2018-03-31T23:02:31.900Z,990.49
2018-03-31T23:03:31.870Z,990.50
2018-03-31T23:04:31.809Z,990.51
2018-03-31T23:05:31.786Z,990.52
2018-03-31T23:06:31.727Z,990.54
2018-03-31T23:07:31.714Z,990.52
2018-03-31T23:08:31.642Z,990.51
2018-03-31T23:09:31.600Z,990.52
2018-03-31T23:10:31.551Z,990.52
2018-03-31T23:11:31.517Z,990.52
2018-03-31T23:12:31.464Z,990.55
2018-03-31T23:13:31.430Z,990.56
2018-03-31T23:14:31.378Z,990.51
2018-03-31T23:15:31.339Z,990.51
2018-03-31T23:16:31.296Z,990.53
2018-03-31T23:17:31.254Z,990.51
2018-03-31T23:18:31.206Z,990.50
2018-03-31T23:19:31.168Z,990.55
2018-03-31T23:20:31.119Z,990.53
2018-03-31T23:21:31.080Z,990.57
2018-03-31T23:22:31.035Z,990.54
2018-03-31T23:23:30.987Z,990.56
2018-03-31T23:24:30.948Z,990.57
2018-03-31T23:25:30.904Z,990.54
2018-03-31T23:26:30.866Z,990.54
2018-03-31T23:27:30.818Z,990.61
2018-03-31T23:28:30.772Z,990.64
2018-03-31T23:29:30.729Z,990.58
2018-03-31T23:30:30.692Z,990.59
2018-03-31T23:31:30.657Z,990.59
2018-03-31T23:32:30.621Z,990.67
2018-03-31T23:33:30.561Z,990.65
2018-03-31T23:34:30.563Z,990.70
2018-03-31T23:35:30.475Z,990.73
2018-03-31T23:36:30.432Z,990.83
2018-03-31T23:37:30.386Z,990.85
2018-03-31T23:38:30.346Z,990.91
2018-03-31T23:39:30.346Z,990.96
2018-03-31T23:40:30.261Z,990.99
2018-03-31T23:41:30.209Z,990.99
2018-03-31T23:42:30.167Z,990.99
2018-03-31T23:43:30.123Z,990.91
2018-03-31T23:44:30.104Z,990.98
2018-03-31T23:45:30.039Z,990.96
2018-03-31T23:46:30.007Z,990.87
2018-03-31T23:47:29.969Z,990.97
2018-03-31T23:48:29.915Z,991.01
2018-03-31T23:49:29.863Z,990.99
2018-03-31T23:50:29.837Z,990.97
2018-03-31T23:51:29.790Z,991.00
2018-03-31T23:52:29.740Z,991.03
2018-03-31T23:53:29.697Z,990.99
2018-03-31T23:54:29.674Z,991.01
2018-03-31T23:55:29.604Z,990.97
2018-03-31T23:56:29.574Z,990.98
2018-03-31T23:57:29.518Z,991.03
2018-03-31T23:58:29.490Z,991.00
2018-03-31T23:59:29.428Z,991.04
